createdAt,value
2023-04-02T00:00:10.682Z,6.85
2023-04-02T00:01:43.223Z,6.81
2023-04-02T00:02:22.343Z,6.75
2023-04-02T00:02:58.825Z,6.80
2023-04-02T00:03:59.690Z,6.81
2023-04-02T00:04:38.338Z,6.76
2023-04-02T00:05:18.596Z,6.82
2023-04-02T00:05:52.178Z,6.83
2023-04-02T00:06:33.219Z,6.87
2023-04-02T00:07:30.973Z,6.84
2023-04-02T00:08:18.357Z,6.73
2023-04-02T00:08:54.575Z,6.76
2023-04-02T00:09:36.926Z,6.76
2023-04-02T00:10:35.805Z,6.78
2023-04-02T00:11:10.456Z,6.78
2023-04-02T00:11:48.740Z,6.76
2023-04-02T00:12:22.323Z,6.75
2023-04-02T00:13:10.747Z,6.79
2023-04-02T00:13:49.378Z,6.81
2023-04-02T00:14:22.746Z,6.87
2023-04-02T00:14:58.255Z,6.89
2023-04-02T00:15:34.574Z,6.90
2023-04-02T00:16:15.797Z,6.87
2023-04-02T00:16:53.123Z,6.89
2023-04-02T00:17:26.937Z,6.89
2023-04-02T00:18:01.996Z,6.88
2023-04-02T00:18:42.819Z,6.91
2023-04-02T00:19:25.910Z,6.93
2023-04-02T00:20:09.338Z,6.89
2023-04-02T00:20:47.050Z,6.88
2023-04-02T00:21:26.852Z,6.88
2023-04-02T00:22:02.354Z,6.85
2023-04-02T00:22:35.835Z,6.83
2023-04-02T00:23:14.588Z,6.85
2023-04-02T00:23:48.733Z,6.93
2023-04-02T00:24:22.612Z,6.95
2023-04-02T00:24:57.227Z,6.93
2023-04-02T00:25:36.734Z,6.92
2023-04-02T00:26:37.780Z,6.92
2023-04-02T00:27:14.015Z,6.85
2023-04-02T00:27:47.987Z,6.84
2023-04-02T00:28:23.507Z,6.86
2023-04-02T00:28:57.809Z,6.89
2023-04-02T00:29:31.341Z,6.95
2023-04-02T00:30:05.464Z,6.94
2023-04-02T00:30:46.179Z,6.95
2023-04-02T00:31:21.087Z,6.93
2023-04-02T00:31:55.512Z,6.90
2023-04-02T00:32:33.336Z,6.93
2023-04-02T00:33:15.930Z,6.93
2023-04-02T00:33:50.505Z,6.96
2023-04-02T00:34:33.164Z,6.98
2023-04-02T00:35:22.967Z,7.00
2023-04-02T00:35:56.989Z,6.96
2023-04-02T00:36:36.159Z,6.95
2023-04-02T00:37:18.602Z,6.98
2023-04-02T00:37:52.122Z,6.97
2023-04-02T00:38:28.648Z,6.93
2023-04-02T00:39:05.141Z,6.91
2023-04-02T00:39:42.554Z,6.93
2023-04-02T00:40:20.077Z,6.96
2023-04-02T00:40:58.888Z,6.97
2023-04-02T00:41:36.299Z,7.00
2023-04-02T00:42:12.868Z,6.99
2023-04-02T00:42:48.443Z,6.98
2023-04-02T00:43:28.868Z,6.99
2023-04-02T00:44:02.947Z,7.01
2023-04-02T00:44:44.671Z,7.02
2023-04-02T00:45:29.078Z,7.00
2023-04-02T00:46:11.172Z,6.96
2023-04-02T00:46:49.961Z,6.96
2023-04-02T00:47:27.863Z,6.96
2023-04-02T00:48:21.155Z,6.95
2023-04-02T00:49:11.200Z,7.03
2023-04-02T00:49:44.973Z,6.98
2023-04-02T00:50:50.242Z,6.98
2023-04-02T00:51:29.630Z,6.91
2023-04-02T00:52:08.211Z,6.91
2023-04-02T00:52:45.430Z,6.93
2023-04-02T00:53:28.777Z,6.95
2023-04-02T00:54:06.831Z,6.94
2023-04-02T00:54:48.910Z,6.95
2023-04-02T00:55:27.807Z,6.97
2023-04-02T00:56:03.538Z,6.94
2023-04-02T00:56:44.533Z,6.94
2023-04-02T00:57:25.819Z,6.93
2023-04-02T00:58:04.673Z,6.94
2023-04-02T00:58:38.604Z,6.95
2023-04-02T00:59:32.331Z,7.00
2023-04-02T01:00:14.554Z,6.95
2023-04-02T01:00:52.299Z,6.93
2023-04-02T01:01:29.771Z,6.96
2023-04-02T01:02:17.553Z,7.00
2023-04-02T01:03:13.364Z,6.98
2023-04-02T01:04:05.985Z,6.89
2023-04-02T01:04:39.700Z,6.88
2023-04-02T01:05:16.969Z,6.90
2023-04-02T01:05:56.553Z,6.88
2023-04-02T01:06:35.872Z,6.93
2023-04-02T01:07:12.402Z,6.96
2023-04-02T01:08:13.318Z,6.95
2023-04-02T01:09:07.749Z,6.92
2023-04-02T01:10:07.737Z,6.89
2023-04-02T01:11:04.352Z,6.90
2023-04-02T01:12:20.251Z,6.88
2023-04-02T01:13:16.415Z,6.83
2023-04-02T01:14:13.269Z,6.80
2023-04-02T01:15:25.426Z,6.78
2023-04-02T01:16:26.065Z,6.76
2023-04-02T01:17:26.681Z,6.79
2023-04-02T01:18:19.846Z,6.72
2023-04-02T01:19:08.978Z,6.73
2023-04-02T01:20:01.738Z,6.72
2023-04-02T01:20:35.324Z,6.74
2023-04-02T01:21:23.320Z,6.77
2023-04-02T01:22:18.643Z,6.74
2023-04-02T01:23:25.954Z,6.73
2023-04-02T01:24:02.144Z,6.75
2023-04-02T01:24:39.269Z,6.81
2023-04-02T01:25:19.244Z,6.84
2023-04-02T01:26:19.952Z,6.79
2023-04-02T01:26:58.152Z,6.72
2023-04-02T01:27:48.167Z,6.73
2023-04-02T01:28:35.519Z,6.76
2023-04-02T01:29:16.814Z,6.84
2023-04-02T01:29:59.540Z,6.83
2023-04-02T01:30:36.854Z,6.81
2023-04-02T01:31:11.293Z,6.77
2023-04-02T01:31:47.378Z,6.76
2023-04-02T01:32:23.644Z,6.78
2023-04-02T01:32:57.137Z,6.80
2023-04-02T01:33:34.449Z,6.82
2023-04-02T01:34:12.315Z,6.85
2023-04-02T01:34:50.891Z,6.88
2023-04-02T01:35:28.232Z,6.87
2023-04-02T01:36:23.700Z,6.88
2023-04-02T01:37:23.305Z,6.85
2023-04-02T01:38:14.521Z,6.78
2023-04-02T01:39:02.432Z,6.83
2023-04-02T01:39:51.104Z,6.79
2023-04-02T01:40:45.922Z,6.80
2023-04-02T01:41:36.620Z,6.80
2023-04-02T01:42:17.654Z,6.81
2023-04-02T01:43:12.123Z,6.81
2023-04-02T01:43:58.609Z,6.79
2023-04-02T01:44:50.965Z,6.78
2023-04-02T01:45:25.390Z,6.78
2023-04-02T01:46:00.148Z,6.78
2023-04-02T01:46:35.894Z,6.81
2023-04-02T01:47:15.724Z,6.83
2023-04-02T01:47:50.389Z,6.81
2023-04-02T01:48:30.752Z,6.91
2023-04-02T01:50:46.020Z,6.79
2023-04-02T01:51:31.793Z,6.74
2023-04-02T01:52:06.669Z,6.82
2023-04-02T01:52:43.729Z,6.78
2023-04-02T01:53:21.451Z,6.77
2023-04-02T01:53:56.843Z,6.74
2023-04-02T01:54:30.517Z,6.78
2023-04-02T01:55:05.803Z,6.78
2023-04-02T01:55:54.377Z,6.80
2023-04-02T01:56:30.738Z,6.82
2023-04-02T01:57:06.278Z,6.84
2023-04-02T01:57:46.329Z,6.83
2023-04-02T01:58:25.786Z,6.88
2023-04-02T01:59:00.765Z,6.88
2023-04-02T01:59:36.024Z,6.84
2023-04-02T02:00:17.198Z,6.85
2023-04-02T02:00:58.168Z,6.85
2023-04-02T02:01:43.980Z,6.83
2023-04-02T02:02:18.001Z,6.81
2023-04-02T02:02:52.286Z,6.80
2023-04-02T02:03:26.390Z,6.80
2023-04-02T02:04:02.306Z,6.83
2023-04-02T02:04:36.203Z,6.83
2023-04-02T02:05:15.960Z,6.85
2023-04-02T02:05:51.501Z,6.94
2023-04-02T02:06:25.311Z,6.96
2023-04-02T02:07:01.006Z,6.92
2023-04-02T02:07:34.762Z,6.97
2023-04-02T02:08:23.141Z,6.95
2023-04-02T02:09:04.008Z,6.90
2023-04-02T02:09:37.928Z,6.84
2023-04-02T02:10:17.934Z,6.81
2023-04-02T02:10:51.777Z,6.82
2023-04-02T02:11:29.098Z,6.83
2023-04-02T02:12:04.554Z,6.82
2023-04-02T02:12:38.552Z,6.85
2023-04-02T02:13:16.204Z,6.84
2023-04-02T02:14:09.837Z,6.85
2023-04-02T02:14:48.161Z,6.83
2023-04-02T02:15:23.853Z,6.83
2023-04-02T02:15:59.451Z,6.83
2023-04-02T02:16:42.091Z,6.84
2023-04-02T02:17:19.487Z,6.84
2023-04-02T02:17:59.641Z,6.87
2023-04-02T02:18:33.880Z,6.87
2023-04-02T02:19:11.356Z,6.88
2023-04-02T02:19:52.834Z,6.97
2023-04-02T02:20:28.425Z,6.91
2023-04-02T02:21:07.877Z,6.90
2023-04-02T02:22:14.694Z,6.90
2023-04-02T02:22:51.563Z,6.86
2023-04-02T02:23:25.785Z,6.88
2023-04-02T02:24:02.215Z,6.89
2023-04-02T02:24:37.405Z,6.91
2023-04-02T02:25:32.896Z,6.94
2023-04-02T02:26:07.607Z,6.97
2023-04-02T02:26:43.201Z,6.94
2023-04-02T02:27:25.646Z,6.96
2023-04-02T02:28:15.578Z,6.92
2023-04-02T02:28:54.634Z,6.92
2023-04-02T02:29:30.488Z,6.97
2023-04-02T02:30:07.792Z,6.90
2023-04-02T02:30:48.626Z,6.94
2023-04-02T02:31:29.795Z,6.95
2023-04-02T02:32:07.330Z,6.86
2023-04-02T02:32:53.053Z,6.87
2023-04-02T02:33:37.236Z,6.86
2023-04-02T02:34:21.318Z,6.85
2023-04-02T02:35:04.517Z,6.86
2023-04-02T02:35:54.978Z,6.85
2023-04-02T02:36:40.329Z,6.85
2023-04-02T02:37:23.343Z,6.85
2023-04-02T02:38:10.695Z,6.83
2023-04-02T02:38:49.997Z,6.86
2023-04-02T02:39:38.087Z,6.85
2023-04-02T02:40:29.154Z,6.88
2023-04-02T02:41:27.582Z,6.87
2023-04-02T02:42:03.106Z,6.80
2023-04-02T02:42:44.600Z,6.79
2023-04-02T02:43:18.760Z,6.81
2023-04-02T02:44:26.951Z,6.82
2023-04-02T02:45:06.610Z,6.80
2023-04-02T02:45:42.156Z,6.79
2023-04-02T02:46:21.000Z,6.80
2023-04-02T02:46:59.748Z,6.84
2023-04-02T02:47:42.477Z,6.86
2023-04-02T02:48:23.057Z,6.93
2023-04-02T02:48:59.791Z,6.95
2023-04-02T02:49:38.362Z,6.89
2023-04-02T02:50:22.709Z,6.91
2023-04-02T02:50:57.222Z,6.84
2023-04-02T02:51:44.613Z,6.82
2023-04-02T02:52:23.128Z,6.84
2023-04-02T02:53:17.882Z,6.88
2023-04-02T02:53:56.000Z,6.84
2023-04-02T02:54:32.383Z,6.84
2023-04-02T02:55:22.842Z,6.85
2023-04-02T02:56:11.185Z,6.84
2023-04-02T02:56:53.568Z,6.98
2023-04-02T02:57:33.840Z,7.05
2023-04-02T02:58:15.912Z,7.02
2023-04-02T02:59:02.073Z,6.89
2023-04-02T02:59:41.158Z,6.81
2023-04-02T03:00:19.681Z,6.82
2023-04-02T03:00:54.083Z,6.77
2023-04-02T03:01:31.385Z,6.85
2023-04-02T03:02:09.942Z,6.82
2023-04-02T03:02:45.034Z,6.85
2023-04-02T03:03:28.507Z,6.93
2023-04-02T03:04:04.877Z,6.92
2023-04-02T03:04:39.063Z,6.89
2023-04-02T03:05:22.406Z,6.86
2023-04-02T03:06:17.582Z,6.84
2023-04-02T03:06:54.076Z,6.85
2023-04-02T03:07:30.560Z,6.87
2023-04-02T03:08:11.164Z,6.85
2023-04-02T03:08:52.474Z,6.83
2023-04-02T03:09:42.580Z,6.82
2023-04-02T03:10:31.669Z,6.83
2023-04-02T03:11:19.978Z,6.78
2023-04-02T03:12:06.856Z,6.79
2023-04-02T03:12:53.671Z,6.79
2023-04-02T03:13:35.798Z,6.77
2023-04-02T03:14:27.457Z,6.77
2023-04-02T03:15:08.540Z,6.75
2023-04-02T03:15:48.003Z,6.77
2023-04-02T03:16:31.788Z,6.82
2023-04-02T03:17:17.384Z,6.79
2023-04-02T03:17:51.681Z,6.80
2023-04-02T03:18:45.677Z,6.89
2023-04-02T03:19:33.806Z,6.79
2023-04-02T03:20:27.536Z,6.74
2023-04-02T03:21:28.878Z,6.76
2023-04-02T03:22:14.981Z,6.75
2023-04-02T03:23:03.523Z,6.74
2023-04-02T03:23:42.518Z,6.70
2023-04-02T03:24:35.050Z,6.69
2023-04-02T03:25:30.500Z,6.71
2023-04-02T03:26:25.243Z,6.68
2023-04-02T03:27:39.686Z,6.67
2023-04-02T03:28:20.102Z,6.64
2023-04-02T03:29:05.334Z,6.66
2023-04-02T03:29:49.762Z,6.69
2023-04-02T03:30:50.527Z,6.69
2023-04-02T03:31:40.190Z,6.68
2023-04-02T03:32:29.122Z,6.63
2023-04-02T03:33:30.317Z,6.62
2023-04-02T03:34:14.608Z,6.63
2023-04-02T03:35:20.302Z,6.59
2023-04-02T03:35:57.303Z,6.59
2023-04-02T03:36:38.547Z,6.60
2023-04-02T03:37:21.481Z,6.62
2023-04-02T03:38:01.300Z,6.65
2023-04-02T03:38:41.386Z,6.74
2023-04-02T03:39:24.610Z,6.72
2023-04-02T03:40:16.070Z,6.66
2023-04-02T03:41:19.379Z,6.61
2023-04-02T03:42:08.358Z,6.60
2023-04-02T03:42:56.435Z,6.65
2023-04-02T03:43:56.169Z,6.62
2023-04-02T03:44:44.684Z,6.58
2023-04-02T03:45:23.178Z,6.56
2023-04-02T03:46:05.525Z,6.63
2023-04-02T03:46:45.253Z,6.63
2023-04-02T03:47:34.770Z,6.67
2023-04-02T03:48:18.658Z,6.66
2023-04-02T03:48:59.257Z,6.69
2023-04-02T03:49:41.644Z,6.71
2023-04-02T03:50:27.315Z,6.65
2023-04-02T03:51:05.634Z,6.59
2023-04-02T03:51:55.704Z,6.58
2023-04-02T03:52:30.649Z,6.60
2023-04-02T03:53:06.218Z,6.65
2023-04-02T03:53:40.087Z,6.72
2023-04-02T03:54:17.050Z,6.67
2023-04-02T03:54:54.100Z,6.69
2023-04-02T03:55:35.969Z,6.74
2023-04-02T03:56:19.550Z,6.68
2023-04-02T03:56:53.939Z,6.74
2023-04-02T03:57:37.122Z,6.70
2023-04-02T03:58:25.910Z,6.67
2023-04-02T03:59:24.997Z,6.68
2023-04-02T04:00:08.623Z,6.63
2023-04-02T04:00:53.771Z,6.70
2023-04-02T04:01:35.678Z,6.67
2023-04-02T04:02:27.698Z,6.64
2023-04-02T04:03:14.855Z,6.64
2023-04-02T04:03:53.577Z,6.61
2023-04-02T04:04:32.021Z,6.60
2023-04-02T04:05:14.709Z,6.66
2023-04-02T04:06:14.678Z,6.60
2023-04-02T04:06:52.581Z,6.62
2023-04-02T04:07:34.981Z,6.65
2023-04-02T04:08:25.451Z,6.66
2023-04-02T04:09:40.477Z,6.60
2023-04-02T04:10:26.017Z,6.56
2023-04-02T04:11:09.161Z,6.54
2023-04-02T04:11:50.010Z,6.56
2023-04-02T04:12:36.304Z,6.57
2023-04-02T04:13:18.371Z,6.54
2023-04-02T04:14:01.387Z,6.57
2023-04-02T04:14:44.101Z,6.61
2023-04-02T04:16:03.368Z,6.60
2023-04-02T04:16:53.911Z,6.59
2023-04-02T04:17:40.672Z,6.53
2023-04-02T04:18:35.187Z,6.52
2023-04-02T04:19:35.416Z,6.53
2023-04-02T04:20:22.810Z,6.50
2023-04-02T04:21:03.353Z,6.51
2023-04-02T04:21:45.440Z,6.56
2023-04-02T04:22:34.185Z,6.56
2023-04-02T04:23:20.207Z,6.59
2023-04-02T04:23:53.716Z,6.62
2023-04-02T04:24:28.120Z,6.65
2023-04-02T04:25:07.722Z,6.61
2023-04-02T04:25:42.280Z,6.59
2023-04-02T04:26:56.385Z,6.64
2023-04-02T04:27:47.127Z,6.51
2023-04-02T04:29:13.220Z,6.55
2023-04-02T04:30:20.650Z,6.52
2023-04-02T04:31:09.529Z,6.51
2023-04-02T04:32:11.261Z,6.50
2023-04-02T04:32:50.594Z,6.52
2023-04-02T04:33:50.861Z,6.52
2023-04-02T04:34:42.663Z,6.50
2023-04-02T04:35:25.235Z,6.52
2023-04-02T04:36:04.129Z,6.57
2023-04-02T04:36:54.668Z,6.62
2023-04-02T04:37:43.110Z,6.57
2023-04-02T04:38:27.939Z,6.53
2023-04-02T04:39:14.817Z,6.53
2023-04-02T04:39:58.608Z,6.54
2023-04-02T04:40:38.337Z,6.54
2023-04-02T04:41:16.943Z,6.54
2023-04-02T04:41:54.728Z,6.51
2023-04-02T04:42:32.550Z,6.54
2023-04-02T04:43:16.289Z,6.61
2023-04-02T04:44:01.354Z,6.61
2023-04-02T04:45:08.063Z,6.61
2023-04-02T04:45:47.987Z,6.55
2023-04-02T04:46:35.755Z,6.58
2023-04-02T04:47:19.401Z,6.50
2023-04-02T04:48:09.430Z,6.48
2023-04-02T04:48:53.109Z,6.55
2023-04-02T04:49:50.949Z,6.54
2023-04-02T04:50:31.414Z,6.53
2023-04-02T04:52:37.033Z,6.55
2023-04-02T04:53:24.254Z,6.47
2023-04-02T04:54:00.867Z,6.47
2023-04-02T04:54:38.697Z,6.52
2023-04-02T04:55:31.177Z,6.59
2023-04-02T04:56:18.524Z,6.56
2023-04-02T04:57:03.537Z,6.56
2023-04-02T04:57:41.786Z,6.57
2023-04-02T04:58:34.663Z,6.59
2023-04-02T04:59:28.959Z,6.56
2023-04-02T05:00:17.897Z,6.55
2023-04-02T05:01:22.244Z,6.55
2023-04-02T05:02:06.976Z,6.58
2023-04-02T05:03:09.577Z,6.59
2023-04-02T05:04:04.228Z,6.59
2023-04-02T05:04:40.592Z,6.58
2023-04-02T05:05:29.960Z,6.63
2023-04-02T05:06:39.221Z,6.56
2023-04-02T05:07:36.855Z,6.48
2023-04-02T05:08:22.812Z,6.49
2023-04-02T05:09:00.698Z,6.52
2023-04-02T05:10:50.559Z,6.53
2023-04-02T05:11:47.560Z,6.49
2023-04-02T05:12:42.650Z,6.48
2023-04-02T05:13:28.875Z,6.50
2023-04-02T05:14:14.110Z,6.55
2023-04-02T05:14:54.528Z,6.53
2023-04-02T05:15:46.031Z,6.52
2023-04-02T05:16:22.995Z,6.54
2023-04-02T05:17:16.358Z,6.57
2023-04-02T05:18:11.896Z,6.64
2023-04-02T05:19:19.575Z,6.57
2023-04-02T05:20:37.555Z,6.52
2023-04-02T05:21:16.949Z,6.53
2023-04-02T05:22:28.858Z,6.51
2023-04-02T05:23:15.731Z,6.53
2023-04-02T05:24:00.224Z,6.54
2023-04-02T05:24:48.882Z,6.54
2023-04-02T05:25:23.969Z,6.54
2023-04-02T05:26:24.816Z,6.59
2023-04-02T05:27:03.115Z,6.55
2023-04-02T05:29:23.069Z,6.61
2023-04-02T05:30:06.886Z,6.51
2023-04-02T05:31:03.483Z,6.54
2023-04-02T05:31:47.401Z,6.55
2023-04-02T05:32:37.005Z,6.53
2023-04-02T05:33:31.437Z,6.55
2023-04-02T05:34:07.513Z,6.55
2023-04-02T05:34:45.940Z,6.54
2023-04-02T05:35:23.987Z,6.58
2023-04-02T05:36:07.109Z,6.61
2023-04-02T05:36:47.050Z,6.61
2023-04-02T05:37:23.588Z,6.62
2023-04-02T05:37:58.270Z,6.65
2023-04-02T05:38:37.245Z,6.68
2023-04-02T05:39:11.830Z,6.67
2023-04-02T05:40:00.074Z,6.71
2023-04-02T05:40:41.793Z,6.68
2023-04-02T05:41:38.634Z,6.67
2023-04-02T05:42:20.847Z,6.61
2023-04-02T05:43:00.692Z,6.64
2023-04-02T05:43:39.165Z,6.62
2023-04-02T05:44:17.816Z,6.64
2023-04-02T05:45:04.154Z,6.65
2023-04-02T05:45:41.850Z,6.66
2023-04-02T05:46:25.948Z,6.68
2023-04-02T05:47:08.346Z,6.70
2023-04-02T05:47:44.844Z,6.73
2023-04-02T05:48:30.332Z,6.72
2023-04-02T05:49:09.588Z,6.74
2023-04-02T05:49:47.238Z,6.71
2023-04-02T05:50:37.799Z,6.80
2023-04-02T05:51:31.520Z,6.80
2023-04-02T05:52:12.382Z,6.74
2023-04-02T05:52:52.140Z,6.77
2023-04-02T05:53:33.299Z,6.85
2023-04-02T05:54:23.490Z,6.79
2023-04-02T05:55:20.847Z,6.78
2023-04-02T05:55:59.881Z,6.68
2023-04-02T05:56:44.333Z,6.70
2023-04-02T05:57:39.461Z,6.73
2023-04-02T05:59:12.667Z,6.68
2023-04-02T05:59:57.541Z,6.75
2023-04-02T06:00:40.254Z,6.75
2023-04-02T06:01:19.095Z,6.74
2023-04-02T06:01:56.330Z,6.79
2023-04-02T06:02:43.020Z,6.78
2023-04-02T06:03:40.124Z,6.79
2023-04-02T06:04:23.235Z,6.82
2023-04-02T06:05:20.638Z,6.85
2023-04-02T06:05:59.893Z,6.83
2023-04-02T06:07:08.486Z,6.86
2023-04-02T06:08:01.844Z,6.82
2023-04-02T06:08:46.082Z,6.84
2023-04-02T06:09:23.472Z,6.83
2023-04-02T06:10:09.699Z,6.82
2023-04-02T06:10:54.984Z,6.84
2023-04-02T06:11:37.780Z,6.90
2023-04-02T06:12:25.107Z,6.75
2023-04-02T06:13:04.494Z,6.87
2023-04-02T06:13:42.584Z,6.91
2023-04-02T06:14:17.812Z,6.94
2023-04-02T06:14:52.998Z,6.96
2023-04-02T06:15:27.486Z,6.94
2023-04-02T06:16:06.785Z,6.87
2023-04-02T06:16:41.887Z,6.91
2023-04-02T06:17:18.356Z,6.94
2023-04-02T06:18:31.697Z,6.96
2023-04-02T06:19:32.545Z,6.97
2023-04-02T06:20:07.133Z,7.03
2023-04-02T06:20:41.355Z,7.09
2023-04-02T06:21:18.599Z,7.06
2023-04-02T06:22:01.070Z,7.04
2023-04-02T06:22:40.283Z,7.09
2023-04-02T06:23:31.168Z,7.07
2023-04-02T06:24:11.930Z,7.10
2023-04-02T06:24:49.512Z,7.15
2023-04-02T06:25:34.518Z,7.20
2023-04-02T06:26:17.533Z,7.16
2023-04-02T06:26:58.134Z,7.17
2023-04-02T06:27:34.321Z,7.20
2023-04-02T06:28:16.427Z,7.21
2023-04-02T06:29:06.313Z,7.24
2023-04-02T06:29:45.418Z,7.28
2023-04-02T06:30:28.914Z,7.25
2023-04-02T06:31:12.521Z,7.27
2023-04-02T06:31:52.676Z,7.30
2023-04-02T06:32:27.995Z,7.30
2023-04-02T06:33:03.206Z,7.31
2023-04-02T06:33:37.807Z,7.30
2023-04-02T06:34:18.670Z,7.36
2023-04-02T06:35:16.345Z,7.36
2023-04-02T06:35:55.500Z,7.40
2023-04-02T06:36:34.488Z,7.37
2023-04-02T06:37:24.524Z,7.40
2023-04-02T06:38:07.532Z,7.43
2023-04-02T06:38:44.252Z,7.45
2023-04-02T06:39:24.062Z,7.42
2023-04-02T06:39:59.756Z,7.42
2023-04-02T06:40:53.400Z,7.45
2023-04-02T06:41:36.402Z,7.37
2023-04-02T06:42:38.024Z,7.34
2023-04-02T06:43:50.195Z,7.39
2023-04-02T06:44:59.817Z,7.34
2023-04-02T06:46:32.777Z,7.40
2023-04-02T06:47:28.525Z,7.39
2023-04-02T06:48:03.973Z,7.43
2023-04-02T06:48:51.945Z,7.45
2023-04-02T06:49:35.821Z,7.43
2023-04-02T06:50:18.583Z,7.49
2023-04-02T06:50:57.524Z,7.58
2023-04-02T06:51:34.244Z,7.53
2023-04-02T06:52:31.624Z,7.55
2023-04-02T06:53:12.128Z,7.54
2023-04-02T06:53:48.489Z,7.57
2023-04-02T06:54:23.316Z,7.62
2023-04-02T06:55:07.896Z,7.65
2023-04-02T06:56:01.471Z,7.65
2023-04-02T06:56:51.024Z,7.65
2023-04-02T06:57:43.627Z,7.65
2023-04-02T06:58:19.107Z,7.68
2023-04-02T06:58:52.717Z,7.74
2023-04-02T06:59:27.485Z,7.77
2023-04-02T07:00:02.231Z,7.80
2023-04-02T07:00:42.855Z,7.82
2023-04-02T07:01:24.331Z,7.78
2023-04-02T07:02:32.159Z,7.81
2023-04-02T07:03:15.045Z,7.73
2023-04-02T07:03:48.682Z,7.77
2023-04-02T07:04:30.322Z,7.84
2023-04-02T07:05:09.527Z,7.83
2023-04-02T07:05:49.571Z,7.79
2023-04-02T07:06:23.463Z,7.75
2023-04-02T07:06:59.013Z,7.75
2023-04-02T07:07:35.817Z,7.78
2023-04-02T07:08:11.404Z,7.85
2023-04-02T07:08:45.445Z,7.89
2023-04-02T07:09:19.458Z,7.89
2023-04-02T07:09:56.673Z,7.88
2023-04-02T07:10:30.654Z,7.94
2023-04-02T07:11:04.082Z,7.98
2023-04-02T07:11:37.910Z,7.97
2023-04-02T07:12:13.827Z,8.04
2023-04-02T07:12:48.566Z,8.02
2023-04-02T07:13:24.596Z,8.02
2023-04-02T07:13:58.356Z,8.03
2023-04-02T07:14:32.632Z,8.09
2023-04-02T07:15:06.916Z,8.08
2023-04-02T07:15:42.390Z,8.09
2023-04-02T07:16:27.733Z,8.04
2023-04-02T07:17:01.559Z,8.01
2023-04-02T07:17:35.046Z,8.01
2023-04-02T07:18:22.222Z,8.00
2023-04-02T07:18:56.333Z,8.00
2023-04-02T07:19:30.242Z,8.03
2023-04-02T07:20:06.433Z,8.06
2023-04-02T07:20:41.865Z,8.07
2023-04-02T07:21:18.629Z,8.07
2023-04-02T07:21:52.565Z,8.07
2023-04-02T07:22:27.351Z,8.12
2023-04-02T07:23:04.680Z,8.13
2023-04-02T07:23:38.381Z,8.15
2023-04-02T07:24:12.073Z,8.15
2023-04-02T07:24:46.530Z,8.10
2023-04-02T07:25:20.084Z,8.11
2023-04-02T07:25:55.461Z,8.14
2023-04-02T07:26:29.041Z,8.12
2023-04-02T07:27:02.872Z,8.11
2023-04-02T07:27:36.538Z,8.13
2023-04-02T07:28:09.998Z,8.13
2023-04-02T07:28:44.025Z,8.13
2023-04-02T07:29:17.701Z,8.12
2023-04-02T07:29:51.293Z,8.13
2023-04-02T07:30:24.882Z,8.14
2023-04-02T07:30:58.414Z,8.15
2023-04-02T07:31:32.032Z,8.16
2023-04-02T07:32:06.246Z,8.12
2023-04-02T07:32:39.981Z,8.10
2023-04-02T07:33:19.146Z,8.09
2023-04-02T07:33:54.898Z,8.06
2023-04-02T07:34:28.332Z,8.06
2023-04-02T07:35:01.772Z,8.10
2023-04-02T07:35:35.348Z,8.14
2023-04-02T07:36:17.718Z,8.07
2023-04-02T07:36:51.731Z,8.00
2023-04-02T07:37:25.164Z,8.02
2023-04-02T07:37:58.874Z,8.03
2023-04-02T07:38:32.268Z,8.07
2023-04-02T07:39:05.795Z,8.03
2023-04-02T07:39:40.685Z,8.03
2023-04-02T07:40:22.113Z,7.99
2023-04-02T07:40:55.474Z,7.98
2023-04-02T07:41:28.924Z,7.97
2023-04-02T07:42:02.555Z,7.99
2023-04-02T07:42:36.426Z,7.99
2023-04-02T07:43:09.972Z,7.94
2023-04-02T07:43:43.924Z,7.89
2023-04-02T07:44:17.522Z,7.86
2023-04-02T07:44:51.504Z,7.94
2023-04-02T07:45:25.053Z,7.90
2023-04-02T07:46:01.116Z,7.89
2023-04-02T07:46:34.631Z,7.91
2023-04-02T07:47:10.584Z,7.92
2023-04-02T07:47:44.320Z,7.93
2023-04-02T07:48:17.671Z,7.85
2023-04-02T07:48:51.032Z,7.87
2023-04-02T07:49:24.594Z,7.90
2023-04-02T07:49:58.344Z,7.90
2023-04-02T07:50:31.702Z,7.88
2023-04-02T07:51:06.241Z,7.87
2023-04-02T07:51:39.608Z,7.92
2023-04-02T07:52:13.163Z,7.84
2023-04-02T07:52:46.805Z,7.84
2023-04-02T07:53:38.948Z,7.87
2023-04-02T07:54:13.205Z,7.82
2023-04-02T07:54:46.691Z,7.80
2023-04-02T07:55:20.122Z,7.81
2023-04-02T07:55:54.263Z,7.87
2023-04-02T07:56:28.889Z,7.94
2023-04-02T07:57:02.316Z,7.93
2023-04-02T07:57:48.693Z,7.91
2023-04-02T07:58:22.530Z,7.95
2023-04-02T07:58:56.523Z,7.96
2023-04-02T07:59:29.954Z,7.97
2023-04-02T08:00:04.988Z,8.08
2023-04-02T08:00:45.797Z,7.98
2023-04-02T08:01:26.003Z,8.02
2023-04-02T08:01:59.914Z,7.99
2023-04-02T08:02:33.613Z,7.96
2023-04-02T08:03:07.366Z,7.93
2023-04-02T08:03:42.761Z,7.94
2023-04-02T08:04:19.113Z,7.89
2023-04-02T08:04:52.761Z,7.87
2023-04-02T08:05:26.696Z,7.93
2023-04-02T08:06:00.550Z,7.90
2023-04-02T08:06:33.927Z,7.87
2023-04-02T08:07:07.641Z,7.86
2023-04-02T08:07:44.540Z,7.91
2023-04-02T08:08:18.087Z,7.87
2023-04-02T08:08:51.492Z,7.87
2023-04-02T08:09:24.953Z,7.88
2023-04-02T08:09:58.762Z,7.84
2023-04-02T08:10:32.339Z,7.87
2023-04-02T08:11:06.289Z,7.88
2023-04-02T08:11:40.431Z,7.94
2023-04-02T08:12:14.718Z,7.93
2023-04-02T08:12:48.218Z,7.93
2023-04-02T08:13:21.784Z,8.04
2023-04-02T08:13:55.624Z,8.05
2023-04-02T08:14:28.991Z,8.00
2023-04-02T08:15:03.393Z,7.99
2023-04-02T08:15:37.415Z,7.97
2023-04-02T08:16:11.364Z,8.04
2023-04-02T08:16:44.823Z,8.03
2023-04-02T08:17:18.450Z,8.03
2023-04-02T08:17:51.949Z,8.06
2023-04-02T08:18:25.775Z,8.05
2023-04-02T08:18:59.271Z,8.04
2023-04-02T08:19:36.938Z,8.10
2023-04-02T08:20:20.366Z,8.09
2023-04-02T08:20:53.669Z,8.05
2023-04-02T08:21:30.328Z,8.08
2023-04-02T08:22:03.716Z,8.06
2023-04-02T08:22:37.321Z,8.07
2023-04-02T08:23:18.288Z,8.08
2023-04-02T08:23:51.919Z,8.04
2023-04-02T08:24:25.737Z,8.07
2023-04-02T08:24:59.268Z,8.06
2023-04-02T08:25:33.245Z,8.07
2023-04-02T08:26:07.572Z,8.06
2023-04-02T08:26:41.970Z,8.05
2023-04-02T08:27:16.327Z,8.05
2023-04-02T08:27:50.136Z,7.97
2023-04-02T08:28:24.261Z,7.97
2023-04-02T08:28:59.274Z,7.96
2023-04-02T08:29:32.705Z,7.94
2023-04-02T08:30:08.490Z,7.95
2023-04-02T08:30:42.117Z,7.97
2023-04-02T08:31:17.416Z,8.03
2023-04-02T08:31:51.292Z,8.11
2023-04-02T08:32:26.657Z,8.17
2023-04-02T08:33:00.066Z,8.05
2023-04-02T08:33:33.662Z,8.00
2023-04-02T08:34:07.040Z,8.00
2023-04-02T08:34:40.683Z,8.05
2023-04-02T08:35:17.066Z,8.11
2023-04-02T08:35:51.339Z,8.05
2023-04-02T08:36:34.730Z,8.06
2023-04-02T08:37:11.608Z,8.06
2023-04-02T08:37:45.425Z,8.04
2023-04-02T08:38:21.770Z,8.05
2023-04-02T08:38:55.241Z,8.12
2023-04-02T08:39:33.185Z,8.11
2023-04-02T08:40:07.714Z,8.18
2023-04-02T08:40:44.361Z,8.28
2023-04-02T08:41:28.001Z,8.22
2023-04-02T08:42:20.847Z,8.23
2023-04-02T08:43:06.111Z,8.14
2023-04-02T08:43:40.965Z,8.10
2023-04-02T08:44:32.572Z,8.10
2023-04-02T08:45:35.770Z,8.13
2023-04-02T08:46:17.064Z,8.26
2023-04-02T08:47:06.643Z,8.28
2023-04-02T08:47:44.463Z,8.26
2023-04-02T08:48:18.559Z,8.29
2023-04-02T08:48:58.271Z,8.35
2023-04-02T08:49:44.646Z,8.37
2023-04-02T08:50:29.391Z,8.37
2023-04-02T08:51:05.302Z,8.49
2023-04-02T08:51:38.875Z,8.51
2023-04-02T08:52:29.083Z,8.54
2023-04-02T08:53:07.209Z,8.54
2023-04-02T08:53:42.153Z,8.45
2023-04-02T08:54:22.514Z,8.46
2023-04-02T08:54:58.243Z,8.47
2023-04-02T08:56:08.281Z,8.52
2023-04-02T08:56:52.195Z,8.53
2023-04-02T08:58:02.039Z,8.56
2023-04-02T08:58:48.739Z,8.59
2023-04-02T08:59:33.544Z,8.64
2023-04-02T09:00:30.156Z,8.65
2023-04-02T09:01:06.661Z,8.63
2023-04-02T09:01:48.991Z,8.61
2023-04-02T09:02:28.435Z,8.63
2023-04-02T09:03:16.330Z,8.68
2023-04-02T09:03:54.292Z,8.76
2023-04-02T09:04:28.692Z,8.66
2023-04-02T09:05:06.536Z,8.75
2023-04-02T09:05:43.542Z,8.77
2023-04-02T09:06:20.652Z,8.77
2023-04-02T09:06:56.907Z,8.82
2023-04-02T09:07:33.335Z,8.84
2023-04-02T09:08:18.989Z,8.83
2023-04-02T09:08:54.095Z,8.83
2023-04-02T09:09:28.112Z,8.84
2023-04-02T09:10:01.941Z,8.87
2023-04-02T09:10:45.767Z,8.99
2023-04-02T09:11:21.954Z,8.97
2023-04-02T09:12:04.440Z,8.99
2023-04-02T09:12:39.273Z,9.02
2023-04-02T09:13:23.973Z,9.08
2023-04-02T09:14:00.412Z,9.05
2023-04-02T09:14:45.461Z,9.10
2023-04-02T09:15:48.239Z,9.13
2023-04-02T09:16:36.369Z,9.11
2023-04-02T09:17:36.903Z,9.12
2023-04-02T09:18:19.468Z,9.13
2023-04-02T09:18:54.334Z,9.11
2023-04-02T09:19:38.713Z,9.13
2023-04-02T09:20:21.672Z,9.21
2023-04-02T09:20:55.144Z,9.25
2023-04-02T09:21:31.696Z,9.22
2023-04-02T09:22:20.679Z,9.20
2023-04-02T09:22:55.223Z,9.29
2023-04-02T09:23:28.821Z,9.31
2023-04-02T09:24:03.979Z,9.29
2023-04-02T09:24:38.476Z,9.29
2023-04-02T09:25:34.385Z,9.25
2023-04-02T09:26:24.608Z,9.20
2023-04-02T09:26:58.094Z,9.21
2023-04-02T09:27:34.153Z,9.32